Time;durP1;ratioP1;P1;durP2;ratioP2;P2;SDS_P1;SDS_P2;PMS_P1;PMS_P2;Temp;Humidity;BMP_temperature;BMP_pressure;BME280_temperature;BME280_humidity;BME280_pressure;Samples;Min_cycle;Max_cycle;Signal;HPM_P1;HPM_P2
2023/03/22 00:00:48;;;;;;;43.50;22.67;;;;;;;;;;2039350;29;20031;-88
2023/03/22 00:01:49;;;;;;;47.72;23.40;;;;;;;;;;2047215;29;20509;-88
2023/03/22 00:02:49;;;;;;;40.65;22.55;;;;;;;;;;2047664;29;20027;-88
2023/03/22 00:03:51;;;;;;;39.95;21.73;;;;;;;;;;2047715;29;20459;-87
2023/03/22 00:04:52;;;;;;;40.17;22.23;;;;;;;;;;2038954;29;20448;-88
2023/03/22 00:05:57;;;;;;;41.25;21.92;;;;;;;;;;2030986;29;20147;-88
2023/03/22 00:06:57;;;;;;;38.47;21.77;;;;;;;;;;2032008;29;20032;-88
2023/03/22 00:07:58;;;;;;;40.53;23.15;;;;;;;;;;2039149;29;20071;-87
2023/03/22 00:08:58;;;;;;;;;;;;;;;;;;2047834;29;20125;-87
2023/03/22 00:09:58;;;;;;;41.53;22.30;;;;;;;;;;2047365;29;19910;-87
2023/03/22 00:10:59;;;;;;;43.55;22.02;;;;;;;;;;2047350;29;20432;-87
2023/03/22 00:11:59;;;;;;;45.72;22.55;;;;;;;;;;2038565;29;20146;-87
2023/03/22 00:13:00;;;;;;;40.42;21.92;;;;;;;;;;2038851;29;20075;-87
2023/03/22 00:14:00;;;;;;;;;;;;;;;;;;2048148;29;20054;-87
2023/03/22 00:15:00;;;;;;;36.05;20.05;;;;;;;;;;2047506;29;19933;-87
2023/03/22 00:16:01;;;;;;;;;;;;;;;;;;2039348;29;20068;-87
2023/03/22 00:17:02;;;;;;;44.20;21.97;;;;;;;;;;2030967;29;20366;-88
2023/03/22 00:18:04;;;;;;;43.70;22.35;;;;;;;;;;2039203;29;20059;-88
2023/03/22 00:19:05;;;;;;;42.05;22.42;;;;;;;;;;2047360;29;20034;-88
2023/03/22 00:20:06;;;;;;;43.25;20.95;;;;;;;;;;2048179;29;20101;-88
2023/03/22 00:21:09;;;;;;;;;;;;;;;;;;2053322;29;20031;-87
2023/03/22 00:22:10;;;;;;;43.22;22.10;;;;;;;;;;2041319;29;19918;-88
2023/03/22 00:23:10;;;;;;;45.90;23.75;;;;;;;;;;2031366;29;20039;-88
2023/03/22 00:24:11;;;;;;;;;;;;;;;;;;2031514;29;20055;-88
2023/03/22 00:25:11;;;;;;;46.88;23.85;;;;;;;;;;2031199;29;19966;-88
2023/03/22 00:26:12;;;;;;;53.67;24.35;;;;;;;;;;2039117;29;20020;-88
2023/03/22 00:27:13;;;;;;;46.25;24.75;;;;;;;;;;2047337;29;20602;-89
2023/03/22 00:28:15;;;;;;;45.20;24.30;;;;;;;;;;2038860;29;20179;-88
2023/03/22 00:29:15;;;;;;;51.78;24.30;;;;;;;;;;2031347;29;20064;-88
2023/03/22 00:30:16;;;;;;;53.08;25.90;;;;;;;;;;2039081;29;20023;-89
2023/03/22 00:31:18;;;;;;;48.25;25.63;;;;;;;;;;2039074;29;20504;-88
2023/03/22 00:32:19;;;;;;;49.10;24.27;;;;;;;;;;2031247;29;20083;-88
2023/03/22 00:33:19;;;;;;;52.20;26.33;;;;;;;;;;2039019;29;20079;-88
2023/03/22 00:34:20;;;;;;;58.30;26.98;;;;;;;;;;2047505;29;20388;-87
2023/03/22 00:35:20;;;;;;;60.20;27.08;;;;;;;;;;2047283;29;20105;-87
2023/03/22 00:36:21;;;;;;;55.05;28.27;;;;;;;;;;2047278;29;20046;-85
2023/03/22 00:37:21;;;;;;;53.95;26.90;;;;;;;;;;2047215;29;20023;-87
2023/03/22 00:38:21;;;;;;;63.25;29.98;;;;;;;;;;2047375;29;20067;-89
2023/03/22 00:39:22;;;;;;;57.67;28.67;;;;;;;;;;2047476;29;20106;-87
2023/03/22 00:40:22;;;;;;;58.13;27.17;;;;;;;;;;2047323;29;20023;-87
2023/03/22 00:41:23;;;;;;;56.42;27.75;;;;;;;;;;2046537;28;20019;-86
2023/03/22 00:42:23;;;;;;;60.78;27.73;;;;;;;;;;2049328;28;20038;-86
2023/03/22 00:43:24;;;;;;;56.65;27.30;;;;;;;;;;2049351;28;20047;-86
2023/03/22 00:44:24;;;;;;;;;;;;;;;;;;2054581;28;20051;-86
2023/03/22 00:45:25;;;;;;;59.70;27.20;;;;;;;;;;2055079;29;19914;-87
2023/03/22 00:46:26;;;;;;;57.90;29.65;;;;;;;;;;2054348;28;20031;-86
2023/03/22 00:47:26;;;;;;;56.10;27.88;;;;;;;;;;2048937;29;20389;-86
2023/03/22 00:48:26;;;;;;;55.22;27.80;;;;;;;;;;2047721;29;20035;-86
2023/03/22 00:49:28;;;;;;;;;;;;;;;;;;2047287;28;20086;-86
2023/03/22 00:50:28;;;;;;;64.50;29.23;;;;;;;;;;2037805;29;19911;-87
2023/03/22 00:51:28;;;;;;;;;;;;;;;;;;2039183;29;20566;-86
2023/03/22 00:52:29;;;;;;;58.03;27.40;;;;;;;;;;2038616;29;19910;-87
2023/03/22 00:53:31;;;;;;;;;;;;;;;;;;2039184;29;20059;-87
2023/03/22 00:54:32;;;;;;;52.67;27.17;;;;;;;;;;2030958;29;19911;-88
2023/03/22 00:55:32;;;;;;;59.88;30.00;;;;;;;;;;2038573;29;20075;-88
2023/03/22 00:56:36;;;;;;;54.20;27.27;;;;;;;;;;2038520;29;20020;-86
2023/03/22 00:57:36;;;;;;;66.38;28.88;;;;;;;;;;2031195;29;20448;-86
2023/03/22 00:58:37;;;;;;;85.05;34.15;;;;;;;;;;2038566;29;20074;-86
2023/03/22 00:59:38;;;;;;;116.78;40.25;;;;;;;;;;2046598;29;20050;-86
2023/03/22 01:00:39;;;;;;;114.35;40.13;;;;;;;;;;2047979;29;20122;-86
2023/03/22 01:01:39;;;;;;;140.57;44.42;;;;;;;;;;2042122;29;20188;-87
2023/03/22 01:02:41;;;;;;;125.78;44.20;;;;;;;;;;2045015;29;20187;-87
2023/03/22 01:03:42;;;;;;;161.45;45.50;;;;;;;;;;2045079;29;20027;-87
2023/03/22 01:04:47;;;;;;;183.30;52.35;;;;;;;;;;2039729;29;20618;-88
2023/03/22 01:05:48;;;;;;;186.48;55.00;;;;;;;;;;2047611;29;20033;-87
2023/03/22 01:06:49;;;;;;;175.93;50.65;;;;;;;;;;2038652;29;20024;-87
2023/03/22 01:07:49;;;;;;;207.52;55.03;;;;;;;;;;2030817;29;20028;-87
2023/03/22 01:08:50;;;;;;;197.55;54.38;;;;;;;;;;2030648;29;20487;-86
2023/03/22 01:09:50;;;;;;;225.40;57.83;;;;;;;;;;2038147;29;20092;-87
2023/03/22 01:10:51;;;;;;;229.98;56.72;;;;;;;;;;1696662;29;10247769;-87
2023/03/22 01:11:51;;;;;;;231.80;55.90;;;;;;;;;;2038861;29;20538;-86
2023/03/22 01:12:52;;;;;;;239.68;59.78;;;;;;;;;;2039197;29;20479;-86
2023/03/22 01:13:54;;;;;;;254.20;61.90;;;;;;;;;;2051725;29;20034;-83
2023/03/22 01:14:55;;;;;;;253.73;62.13;;;;;;;;;;2049000;29;20031;-86
2023/03/22 01:15:55;;;;;;;260.95;59.10;;;;;;;;;;2047208;29;20381;-86
2023/03/22 01:16:56;;;;;;;;;;;;;;;;;;2038823;29;20393;-87
2023/03/22 01:17:57;;;;;;;256.27;62.27;;;;;;;;;;2038375;29;19961;-87
2023/03/22 01:18:57;;;;;;;244.52;59.53;;;;;;;;;;2038270;29;20495;-87
2023/03/22 01:19:57;;;;;;;236.18;59.20;;;;;;;;;;2030494;29;20068;-86
2023/03/22 01:20:59;;;;;;;254.95;58.17;;;;;;;;;;2038310;29;20375;-87
2023/03/22 01:21:59;;;;;;;232.18;58.13;;;;;;;;;;2038426;29;20196;-87
2023/03/22 01:23:00;;;;;;;258.92;60.92;;;;;;;;;;2030321;29;20527;-87
2023/03/22 01:24:00;;;;;;;;;;;;;;;;;;2031024;29;20032;-87
2023/03/22 01:25:00;;;;;;;244.13;56.85;;;;;;;;;;1697869;29;10001776;-89
2023/03/22 01:26:01;;;;;;;230.68;56.45;;;;;;;;;;2046315;29;20360;-87
2023/03/22 01:27:01;;;;;;;235.50;55.17;;;;;;;;;;2038256;29;20051;-86
2023/03/22 01:28:02;;;;;;;239.90;58.20;;;;;;;;;;2038436;29;20438;-86
2023/03/22 01:29:02;;;;;;;228.45;53.97;;;;;;;;;;2047124;29;20547;-87
2023/03/22 01:30:05;;;;;;;238.55;57.00;;;;;;;;;;2038243;29;20031;-87
2023/03/22 01:31:06;;;;;;;168.52;40.97;;;;;;;;;;2030553;29;20042;-87
2023/03/22 01:32:06;;;;;;;152.57;40.65;;;;;;;;;;2030337;29;20126;-87
2023/03/22 01:33:07;;;;;;;172.32;44.40;;;;;;;;;;2038470;29;20046;-87
2023/03/22 01:34:07;;;;;;;;;;;;;;;;;;2047257;29;20509;-87
2023/03/22 01:35:08;;;;;;;140.90;42.93;;;;;;;;;;2046887;29;20374;-87
2023/03/22 01:36:09;;;;;;;139.70;40.65;;;;;;;;;;2037977;29;20038;-87
2023/03/22 01:37:09;;;;;;;;;;;;;;;;;;2039021;29;20054;-87
2023/03/22 01:38:10;;;;;;;135.63;42.07;;;;;;;;;;2046930;29;20005;-87
2023/03/22 01:39:10;;;;;;;145.98;42.00;;;;;;;;;;2046941;29;20546;-88
2023/03/22 01:40:12;;;;;;;;;;;;;;;;;;2046625;29;20487;-88
2023/03/22 01:41:14;;;;;;;179.50;51.72;;;;;;;;;;2046267;29;19948;-88
2023/03/22 01:42:15;;;;;;;199.23;54.95;;;;;;;;;;2047531;29;20056;-87
2023/03/22 01:43:16;;;;;;;202.77;54.10;;;;;;;;;;2047223;29;20031;-88
2023/03/22 01:44:21;;;;;;;204.10;54.90;;;;;;;;;;2038025;29;20058;-88
2023/03/22 01:45:27;;;;;;;192.18;50.50;;;;;;;;;;2030960;29;20124;-87
2023/03/22 01:46:29;;;;;;;163.75;44.00;;;;;;;;;;2030959;29;20475;-89
2023/03/22 01:47:31;;;;;;;160.57;45.80;;;;;;;;;;2038437;29;20651;-87
2023/03/22 01:48:40;;;;;;;142.80;41.50;;;;;;;;;;2038274;29;20051;-88
2023/03/22 01:49:41;;;;;;;115.70;35.50;;;;;;;;;;2031526;29;20043;-87
2023/03/22 01:50:45;;;;;;;111.00;32.53;;;;;;;;;;2030381;29;20028;-87
2023/03/22 01:51:48;;;;;;;107.68;32.08;;;;;;;;;;2038742;29;20038;-88
2023/03/22 01:52:51;;;;;;;107.93;31.20;;;;;;;;;;2038190;29;20401;-87
2023/03/22 01:53:55;;;;;;;118.38;32.67;;;;;;;;;;2038428;29;20039;-86
2023/03/22 01:54:56;;;;;;;117.10;34.83;;;;;;;;;;2037883;29;20035;-87
2023/03/22 01:55:56;;;;;;;110.88;37.25;;;;;;;;;;2038241;29;20043;-86
2023/03/22 01:56:58;;;;;;;100.50;37.13;;;;;;;;;;2038006;29;20048;-87
2023/03/22 01:58:00;;;;;;;86.75;33.47;;;;;;;;;;2030255;29;20095;-86
2023/03/22 01:59:01;;;;;;;74.20;29.25;;;;;;;;;;2038251;29;20039;-88
2023/03/22 02:00:14;;;;;;;66.07;28.15;;;;;;;;;;2046849;28;20038;-89
2023/03/22 02:01:15;;;;;;;55.45;25.80;;;;;;;;;;2046815;28;20070;-89
2023/03/22 02:02:20;;;;;;;57.38;25.20;;;;;;;;;;2051053;29;20031;-88
2023/03/22 02:04:14;;;;;;;56.35;25.30;;;;;;;;;;2050126;28;20099;-88
2023/03/22 02:05:16;;;;;;;94.70;32.78;;;;;;;;;;2043338;29;20098;-88
2023/03/22 02:06:18;;;;;;;92.55;29.17;;;;;;;;;;2049010;29;20475;-87
2023/03/22 02:07:25;;;;;;;91.07;30.27;;;;;;;;;;2052119;29;20094;-88
2023/03/22 02:08:27;;;;;;;72.55;26.73;;;;;;;;;;2038189;29;20020;-88
2023/03/22 02:09:29;;;;;;;69.88;26.55;;;;;;;;;;2030272;29;20100;-88
2023/03/22 02:10:29;;;;;;;54.25;20.90;;;;;;;;;;2038005;29;20123;-88
2023/03/22 02:11:34;;;;;;;45.25;18.90;;;;;;;;;;2038165;29;20126;-88
2023/03/22 02:13:12;;;;;;;38.13;16.95;;;;;;;;;;2039037;29;20313;-88
2023/03/22 02:14:21;;;;;;;35.78;14.95;;;;;;;;;;2038307;29;20035;-89
2023/03/22 02:15:42;;;;;;;33.85;15.32;;;;;;;;;;2039451;29;20027;-89
2023/03/22 02:16:42;;;;;;;33.20;14.85;;;;;;;;;;2038151;29;20035;-89
2023/03/22 02:17:52;;;;;;;24.83;13.70;;;;;;;;;;2038429;29;20103;-89
2023/03/22 02:19:21;;;;;;;27.40;14.30;;;;;;;;;;2038324;29;20024;-90
2023/03/22 02:20:30;;;;;;;28.63;14.27;;;;;;;;;;2029349;29;20578;-89
2023/03/22 02:22:00;;;;;;;27.58;14.40;;;;;;;;;;2031280;29;20467;-90
2023/03/22 02:23:04;;;;;;;28.27;15.15;;;;;;;;;;2028519;29;20110;-88
2023/03/22 02:24:16;;;;;;;31.88;15.20;;;;;;;;;;2046022;29;20101;-90
2023/03/22 02:25:54;;;;;;;28.45;16.10;;;;;;;;;;2039023;29;20054;-89
2023/03/22 02:27:05;;;;;;;27.80;15.10;;;;;;;;;;2043467;29;20569;-89
2023/03/22 02:28:30;;;;;;;28.42;14.88;;;;;;;;;;2038380;29;20490;-89
2023/03/22 02:29:51;;;;;;;34.90;15.85;;;;;;;;;;2037984;29;20036;-89
2023/03/22 02:31:05;;;;;;;34.33;17.65;;;;;;;;;;2041138;29;20020;-90
2023/03/22 02:32:30;;;;;;;33.92;16.67;;;;;;;;;;2038062;29;20110;-90
2023/03/22 02:34:04;;;;;;;36.85;16.95;;;;;;;;;;2038315;29;20111;-90
2023/03/22 02:35:11;;;;;;;36.03;17.75;;;;;;;;;;2034393;29;20086;-90
2023/03/22 02:36:33;;;;;;;36.30;17.10;;;;;;;;;;2030989;29;20083;-89
2023/03/22 02:38:09;;;;;;;42.15;20.00;;;;;;;;;;2041242;29;20514;-90
2023/03/22 02:39:28;;;;;;;52.60;20.40;;;;;;;;;;1665279;29;10369819;-89
2023/03/22 02:40:37;;;;;;;45.03;19.90;;;;;;;;;;2012047;29;20365;-90
2023/03/22 02:41:54;;;;;;;51.67;22.17;;;;;;;;;;2031369;29;20115;-89
2023/03/22 02:43:04;;;;;;;49.85;22.27;;;;;;;;;;2032170;29;20031;-90
2023/03/22 02:44:04;;;;;;;55.67;22.90;;;;;;;;;;2031205;29;20032;-90
2023/03/22 02:45:10;;;;;;;;;;;;;;;;;;2030682;29;20443;-91
2023/03/22 02:46:16;;;;;;;49.58;20.25;;;;;;;;;;2038114;29;19953;-90
2023/03/22 02:47:33;;;;;;;63.35;23.60;;;;;;;;;;2039066;29;20019;-90
2023/03/22 02:48:51;;;;;;;80.45;27.67;;;;;;;;;;2038116;29;20406;-90
2023/03/22 02:49:57;;;;;;;83.80;28.95;;;;;;;;;;2040489;29;20126;-89
2023/03/22 02:51:09;;;;;;;97.47;30.88;;;;;;;;;;2037902;29;20118;-90
2023/03/22 02:52:19;;;;;;;99.30;31.42;;;;;;;;;;2039496;29;20073;-89
2023/03/22 02:53:24;;;;;;;104.57;30.85;;;;;;;;;;2045920;29;20047;-89
2023/03/22 02:54:28;;;;;;;99.55;30.20;;;;;;;;;;2037847;29;20390;-89
2023/03/22 02:55:45;;;;;;;95.75;31.95;;;;;;;;;;2038003;29;20596;-89
2023/03/22 02:56:50;;;;;;;94.03;31.25;;;;;;;;;;2037826;29;20027;-89
2023/03/22 02:58:10;;;;;;;93.35;30.10;;;;;;;;;;2037679;29;20134;-89
2023/03/22 02:59:12;;;;;;;63.65;22.77;;;;;;;;;;2032708;29;20058;-88
2023/03/22 03:00:14;;;;;;;58.75;21.33;;;;;;;;;;2043164;29;20368;-88
2023/03/22 03:01:22;;;;;;;47.45;18.55;;;;;;;;;;2046448;29;20182;-88
2023/03/22 03:02:26;;;;;;;44.67;17.42;;;;;;;;;;2046359;29;20107;-88
2023/03/22 03:03:29;;;;;;;48.83;17.95;;;;;;;;;;2046341;29;20077;-88
2023/03/22 03:04:34;;;;;;;39.03;16.77;;;;;;;;;;2037973;29;20038;-89
2023/03/22 03:05:35;;;;;;;34.78;14.68;;;;;;;;;;2037758;29;20023;-89
2023/03/22 03:06:39;;;;;;;;;;;;;;;;;;2038534;29;20031;-89
2023/03/22 03:07:45;;;;;;;32.70;13.60;;;;;;;;;;2045717;29;20349;-89
2023/03/22 03:08:49;;;;;;;32.08;14.75;;;;;;;;;;2046572;29;20050;-88
2023/03/22 03:09:50;;;;;;;30.58;14.05;;;;;;;;;;2037844;29;20027;-90
2023/03/22 03:10:52;;;;;;;29.33;14.43;;;;;;;;;;2029860;29;20039;-90
2023/03/22 03:11:53;;;;;;;27.63;13.63;;;;;;;;;;2029903;29;20024;-89
2023/03/22 03:12:53;;;;;;;;;;;;;;;;;;2038528;29;20206;-89
2023/03/22 03:13:54;;;;;;;21.90;11.40;;;;;;;;;;2047668;29;19910;-89
2023/03/22 03:14:55;;;;;;;22.10;10.43;;;;;;;;;;2048400;29;20037;-91
2023/03/22 03:16:00;;;;;;;16.90;9.70;;;;;;;;;;2040013;29;20055;-90
2023/03/22 03:17:24;;;;;;;17.73;10.32;;;;;;;;;;2046207;29;20035;-89
2023/03/22 03:18:45;;;;;;;15.23;9.43;;;;;;;;;;2056759;29;20070;-90
2023/03/22 03:19:58;;;;;;;16.52;9.43;;;;;;;;;;2044664;29;20113;-90
2023/03/22 03:21:19;;;;;;;15.13;9.48;;;;;;;;;;2034657;29;20083;-89
2023/03/22 03:22:44;;;;;;;16.88;9.70;;;;;;;;;;2034581;29;20024;-89
2023/03/22 03:24:10;;;;;;;19.90;10.40;;;;;;;;;;2039968;29;20028;-90
2023/03/22 03:25:18;;;;;;;17.33;10.82;;;;;;;;;;2034662;29;20213;-89
2023/03/22 03:26:38;;;;;;;20.70;11.23;;;;;;;;;;2032691;29;20024;-89
2023/03/22 03:27:49;;;;;;;21.55;12.77;;;;;;;;;;2044617;28;20115;-89
2023/03/22 03:29:13;;;;;;;20.27;12.02;;;;;;;;;;2047918;29;20019;-90
2023/03/22 03:30:20;;;;;;;20.02;12.07;;;;;;;;;;2039330;29;20023;-89
2023/03/22 03:31:47;;;;;;;19.55;11.80;;;;;;;;;;1697895;29;10064183;-90
2023/03/22 03:32:55;;;;;;;19.42;11.65;;;;;;;;;;2039594;29;20476;-89
2023/03/22 03:34:07;;;;;;;20.75;12.73;;;;;;;;;;2040516;29;20031;-88
2023/03/22 03:35:24;;;;;;;22.42;13.32;;;;;;;;;;2039401;29;20038;-90
2023/03/22 03:36:25;;;;;;;18.95;12.32;;;;;;;;;;2051216;28;20039;-90
2023/03/22 03:37:45;;;;;;;20.75;12.13;;;;;;;;;;2049859;28;20047;-90
2023/03/22 03:38:50;;;;;;;19.17;11.38;;;;;;;;;;2051711;28;20019;-90
2023/03/22 03:39:58;;;;;;;26.77;14.35;;;;;;;;;;2052996;29;20023;-90
2023/03/22 03:41:05;;;;;;;24.40;13.77;;;;;;;;;;2052895;29;20070;-90
2023/03/22 03:42:11;;;;;;;32.75;15.35;;;;;;;;;;2050747;29;20535;-91
2023/03/22 03:43:13;;;;;;;35.25;16.38;;;;;;;;;;2040314;29;20075;-90
2023/03/22 03:44:16;;;;;;;31.92;16.88;;;;;;;;;;2031787;29;20039;-90
2023/03/22 03:45:18;;;;;;;36.03;17.45;;;;;;;;;;2039799;29;20054;-90
2023/03/22 03:46:19;;;;;;;32.70;18.00;;;;;;;;;;2039304;29;20500;-89
2023/03/22 03:47:20;;;;;;;43.75;19.42;;;;;;;;;;2031407;29;20020;-90
2023/03/22 03:48:22;;;;;;;;;;;;;;;;;;2031926;29;20016;-87
2023/03/22 03:49:23;;;;;;;44.72;18.38;;;;;;;;;;2031573;29;19922;-90
2023/03/22 03:50:25;;;;;;;;;;;;;;;;;;2039841;29;20289;-89
2023/03/22 03:51:27;;;;;;;41.28;19.02;;;;;;;;;;2047628;29;19914;-90
2023/03/22 03:52:28;;;;;;;41.40;18.67;;;;;;;;;;2053584;29;20038;-90
2023/03/22 03:53:29;;;;;;;40.13;18.50;;;;;;;;;;2056905;29;20021;-89
2023/03/22 03:54:29;;;;;;;46.72;20.02;;;;;;;;;;2039400;29;20119;-90
2023/03/22 03:55:30;;;;;;;;;;;;;;;;;;2031953;29;20119;-89
2023/03/22 03:56:31;;;;;;;39.30;17.80;;;;;;;;;;2031392;29;19983;-89
2023/03/22 03:57:31;;;;;;;48.97;22.17;;;;;;;;;;2039283;29;20035;-89
2023/03/22 03:58:31;;;;;;;46.83;21.10;;;;;;;;;;2039205;29;20106;-90
2023/03/22 03:59:32;;;;;;;58.47;23.85;;;;;;;;;;2031174;29;20064;-88
2023/03/22 04:00:32;;;;;;;;;;;;;;;;;;2021629;29;20043;-88
2023/03/22 04:01:32;;;;;;;54.38;23.40;;;;;;;;;;2039276;29;19947;-87
2023/03/22 04:02:33;;;;;;;;;;;;;;;;;;2039349;29;20054;-87
2023/03/22 04:03:33;;;;;;;73.87;26.97;;;;;;;;;;2039013;29;20005;-87
2023/03/22 04:04:34;;;;;;;64.57;27.15;;;;;;;;;;2038868;29;20107;-88
2023/03/22 04:05:34;;;;;;;;;;;;;;;;;;2031509;29;20512;-87
2023/03/22 04:06:34;;;;;;;60.97;24.47;;;;;;;;;;2038969;29;19918;-87
2023/03/22 04:07:35;;;;;;;;;;;;;;;;;;2039291;29;20039;-87
2023/03/22 04:08:35;;;;;;;76.70;28.67;;;;;;;;;;2039169;29;19914;-87
2023/03/22 04:09:38;;;;;;;59.13;26.40;;;;;;;;;;2048771;29;20137;-89
2023/03/22 04:10:38;;;;;;;67.40;27.60;;;;;;;;;;2046737;29;20147;-89
2023/03/22 04:11:40;;;;;;;;;;;;;;;;;;2039323;29;20562;-89
2023/03/22 04:12:40;;;;;;;;;;;;;;;;;;1684325;29;10433845;-88
2023/03/22 04:13:41;;;;;;;74.37;27.97;;;;;;;;;;2039270;29;19926;-88
2023/03/22 04:14:41;;;;;;;;;;;;;;;;;;2039678;29;20027;-88
2023/03/22 04:15:41;;;;;;;112.85;35.33;;;;;;;;;;2047642;29;20382;-88
2023/03/22 04:16:41;;;;;;;;;;;;;;;;;;2039271;29;20024;-89
2023/03/22 04:17:42;;;;;;;120.80;37.53;;;;;;;;;;2038910;29;19917;-88
2023/03/22 04:18:43;;;;;;;118.70;37.65;;;;;;;;;;2038982;29;20559;-88
2023/03/22 04:19:44;;;;;;;132.98;38.38;;;;;;;;;;2031090;29;20028;-88
2023/03/22 04:20:45;;;;;;;;;;;;;;;;;;2039622;29;20106;-89
2023/03/22 04:21:45;;;;;;;145.20;38.63;;;;;;;;;;2038927;29;19921;-89
2023/03/22 04:22:47;;;;;;;134.98;40.17;;;;;;;;;;2039048;29;20033;-88
2023/03/22 04:23:48;;;;;;;141.50;39.20;;;;;;;;;;2047288;29;20112;-88
2023/03/22 04:24:51;;;;;;;146.80;42.22;;;;;;;;;;2046692;28;20038;-88
2023/03/22 04:25:52;;;;;;;155.77;44.58;;;;;;;;;;2047184;29;20034;-88
2023/03/22 04:26:52;;;;;;;;;;;;;;;;;;2048036;29;20411;-88
2023/03/22 04:27:54;;;;;;;145.57;40.20;;;;;;;;;;2047314;29;20067;-88
2023/03/22 04:28:57;;;;;;;134.18;42.15;;;;;;;;;;2038650;29;20092;-88
2023/03/22 04:29:59;;;;;;;138.32;41.15;;;;;;;;;;2039062;29;20511;-89
2023/03/22 04:31:02;;;;;;;145.90;40.33;;;;;;;;;;2038596;29;20115;-88
2023/03/22 04:32:03;;;;;;;139.13;40.88;;;;;;;;;;2038967;29;20026;-88
2023/03/22 04:33:07;;;;;;;140.85;41.35;;;;;;;;;;1696906;29;10239794;-87
2023/03/22 04:34:08;;;;;;;129.65;40.10;;;;;;;;;;2038552;29;20031;-88
2023/03/22 04:35:08;;;;;;;;;;;;;;;;;;2031408;29;20043;-87
2023/03/22 04:36:09;;;;;;;130.37;38.87;;;;;;;;;;2038642;29;19934;-87
2023/03/22 04:37:10;;;;;;;107.80;35.50;;;;;;;;;;2030922;29;20075;-88
2023/03/22 04:38:10;;;;;;;;;;;;;;;;;;2031182;29;20419;-88
2023/03/22 04:39:11;;;;;;;100.43;34.03;;;;;;;;;;1680788;29;10328981;-87
2023/03/22 04:40:15;;;;;;;97.97;35.38;;;;;;;;;;2038788;29;20063;-88
2023/03/22 04:41:15;;;;;;;100.90;35.28;;;;;;;;;;2047663;28;20020;-90
2023/03/22 04:42:16;;;;;;;97.10;33.22;;;;;;;;;;2039118;29;20526;-90
2023/03/22 04:43:17;;;;;;;93.35;33.83;;;;;;;;;;2031166;29;20135;-89
2023/03/22 04:44:18;;;;;;;89.80;32.28;;;;;;;;;;2033460;29;20032;-90
2023/03/22 04:45:18;;;;;;;78.82;32.08;;;;;;;;;;2033890;29;20038;-89
2023/03/22 04:46:20;;;;;;;;;;;;;;;;;;2039201;29;20020;-89
2023/03/22 04:47:20;;;;;;;84.50;31.63;;;;;;;;;;2035353;29;19915;-89
2023/03/22 04:48:21;;;;;;;72.80;28.90;;;;;;;;;;2031289;29;20748;-89
2023/03/22 04:49:21;;;;;;;73.78;30.40;;;;;;;;;;1698493;29;10001185;-89
2023/03/22 04:50:21;;;;;;;;;;;;;;;;;;2039434;29;20031;-89
2023/03/22 04:51:22;;;;;;;67.53;28.73;;;;;;;;;;2039137;29;20018;-90
2023/03/22 04:52:22;;;;;;;68.95;29.23;;;;;;;;;;2039846;29;20570;-90
2023/03/22 04:53:26;;;;;;;69.65;28.90;;;;;;;;;;2040464;29;20030;-89
2023/03/22 04:54:26;;;;;;;67.13;26.63;;;;;;;;;;2047556;29;20422;-89
2023/03/22 04:55:26;;;;;;;;;;;;;;;;;;2039844;29;20096;-88
2023/03/22 04:56:27;;;;;;;65.37;27.40;;;;;;;;;;2038871;29;20007;-90
2023/03/22 04:57:27;;;;;;;64.35;27.42;;;;;;;;;;2038773;29;20031;-89
2023/03/22 04:58:27;;;;;;;;;;;;;;;;;;2039598;29;20031;-89
2023/03/22 04:59:28;;;;;;;65.67;27.10;;;;;;;;;;2049539;29;19966;-89
2023/03/22 05:00:30;;;;;;;66.65;26.42;;;;;;;;;;2045105;29;20031;-90
2023/03/22 05:01:31;;;;;;;70.95;28.45;;;;;;;;;;2032715;29;20036;-89
2023/03/22 05:02:31;;;;;;;;;;;;;;;;;;2039115;29;20046;-88
2023/03/22 05:03:32;;;;;;;74.90;28.43;;;;;;;;;;2047298;29;19977;-89
2023/03/22 05:04:32;;;;;;;67.38;28.67;;;;;;;;;;2047382;29;20227;-89
2023/03/22 05:05:33;;;;;;;77.57;26.75;;;;;;;;;;2038909;29;20070;-91
2023/03/22 05:06:33;;;;;;;75.53;30.30;;;;;;;;;;2031253;29;20079;-90
2023/03/22 05:07:34;;;;;;;;;;;;;;;;;;2039325;29;20027;-87
2023/03/22 05:08:35;;;;;;;73.33;29.57;;;;;;;;;;2038901;29;19922;-89
2023/03/22 05:09:36;;;;;;;89.60;36.28;;;;;;;;;;2039421;29;20038;-90
2023/03/22 05:10:39;;;;;;;75.40;30.38;;;;;;;;;;2047435;29;20035;-89
2023/03/22 05:11:40;;;;;;;84.05;30.80;;;;;;;;;;2038996;29;20423;-88
2023/03/22 05:12:40;;;;;;;86.88;34.80;;;;;;;;;;2039059;29;20038;-89
2023/03/22 05:13:41;;;;;;;91.18;33.72;;;;;;;;;;2046785;29;20475;-89
2023/03/22 05:14:42;;;;;;;;;;;;;;;;;;2039244;29;20131;-88
2023/03/22 05:15:42;;;;;;;89.80;32.80;;;;;;;;;;2039371;29;19946;-88
2023/03/22 05:16:42;;;;;;;108.22;41.25;;;;;;;;;;2047540;29;20046;-88
2023/03/22 05:17:43;;;;;;;124.47;40.17;;;;;;;;;;2039030;29;20066;-87
2023/03/22 05:18:44;;;;;;;119.88;39.22;;;;;;;;;;2031043;29;20122;-88
2023/03/22 05:19:44;;;;;;;116.03;38.90;;;;;;;;;;2038621;29;20035;-88
2023/03/22 05:20:46;;;;;;;129.43;38.25;;;;;;;;;;2047438;29;20609;-89
2023/03/22 05:21:47;;;;;;;118.75;37.40;;;;;;;;;;2046992;29;20058;-89
2023/03/22 05:22:49;;;;;;;128.60;39.67;;;;;;;;;;2038588;29;20028;-88
2023/03/22 05:23:50;;;;;;;133.05;38.45;;;;;;;;;;2038570;29;20118;-88
2023/03/22 05:24:50;;;;;;;129.20;38.03;;;;;;;;;;2038474;29;20119;-87
2023/03/22 05:25:53;;;;;;;117.53;37.55;;;;;;;;;;2038389;29;20043;-88
2023/03/22 05:26:53;;;;;;;116.40;36.53;;;;;;;;;;2046497;29;20200;-88
2023/03/22 05:27:53;;;;;;;106.72;35.65;;;;;;;;;;2038466;29;20511;-88
2023/03/22 05:28:54;;;;;;;111.70;36.70;;;;;;;;;;2038526;29;20122;-89
2023/03/22 05:29:55;;;;;;;100.90;34.53;;;;;;;;;;2047398;29;20109;-89
2023/03/22 05:30:56;;;;;;;99.60;33.60;;;;;;;;;;1696602;29;10252613;-88
2023/03/22 05:31:56;;;;;;;99.97;34.47;;;;;;;;;;2046869;29;20109;-88
2023/03/22 05:33:02;;;;;;;102.50;33.63;;;;;;;;;;2046955;29;20536;-89
2023/03/22 05:34:02;;;;;;;92.32;35.13;;;;;;;;;;2046627;29;20031;-88
2023/03/22 05:35:03;;;;;;;96.82;35.20;;;;;;;;;;2038277;29;20044;-87
2023/03/22 05:36:04;;;;;;;100.45;36.22;;;;;;;;;;2037975;29;20035;-88
2023/03/22 05:37:05;;;;;;;96.38;35.63;;;;;;;;;;2030558;29;20048;-88
2023/03/22 05:38:06;;;;;;;89.95;34.97;;;;;;;;;;2038768;29;20059;-88
2023/03/22 05:39:07;;;;;;;96.65;36.83;;;;;;;;;;2051024;29;20067;-88
2023/03/22 05:40:17;;;;;;;81.62;30.58;;;;;;;;;;978441;29;10021838;-88
2023/03/22 05:41:18;;;;;;;94.07;34.88;;;;;;;;;;2031726;29;20256;-88
2023/03/22 05:42:19;;;;;;;91.63;34.80;;;;;;;;;;2038427;29;20487;-88
2023/03/22 05:43:20;;;;;;;89.68;34.65;;;;;;;;;;2046432;29;20027;-88
2023/03/22 05:44:20;;;;;;;81.47;33.65;;;;;;;;;;2038135;29;20537;-88
2023/03/22 05:45:21;;;;;;;75.60;31.73;;;;;;;;;;2038247;29;20440;-88
2023/03/22 05:46:22;;;;;;;75.90;32.20;;;;;;;;;;2030383;29;20499;-88
2023/03/22 05:47:22;;;;;;;79.35;32.10;;;;;;;;;;2038333;29;20118;-88
2023/03/22 05:48:23;;;;;;;79.63;31.80;;;;;;;;;;2047042;29;20419;-88
2023/03/22 05:49:25;;;;;;;;;;;;;;;;;;2038861;29;20114;-89
2023/03/22 05:50:26;;;;;;;86.03;33.90;;;;;;;;;;2032769;29;20374;-88
2023/03/22 05:51:28;;;;;;;90.88;35.00;;;;;;;;;;2048899;28;20038;-89
2023/03/22 05:52:29;;;;;;;83.05;34.08;;;;;;;;;;2056938;28;20042;-88
2023/03/22 05:53:30;;;;;;;87.53;34.53;;;;;;;;;;2056740;28;20031;-87
2023/03/22 05:54:31;;;;;;;92.85;35.72;;;;;;;;;;2043389;29;20099;-88
2023/03/22 05:55:31;;;;;;;93.20;35.08;;;;;;;;;;2043079;29;20579;-89
2023/03/22 05:56:32;;;;;;;;;;;;;;;;;;2040382;29;20089;-89
2023/03/22 05:57:32;;;;;;;91.47;32.97;;;;;;;;;;2047487;29;19936;-89
2023/03/22 05:58:46;;;;;;;86.53;34.22;;;;;;;;;;2039582;29;20102;-89
2023/03/22 06:00:02;;;;;;;;;;;;;;;;;;;;;
2023/03/22 06:01:32;;;;;;;83.07;33.05;;;;;;;;;;2047847;29;20111;-90
2023/03/22 06:02:30;;;;;;;91.85;33.47;;;;;;;;;;2046965;29;20126;-88
2023/03/22 06:03:30;;;;;;;84.20;32.70;;;;;;;;;;2048134;29;20031;-88
2023/03/22 06:04:31;;;;;;;85.43;33.53;;;;;;;;;;2047506;29;20497;-87
2023/03/22 06:05:32;;;;;;;84.43;33.92;;;;;;;;;;2047901;29;20043;-88
2023/03/22 06:06:32;;;;;;;94.00;35.75;;;;;;;;;;2047181;29;20431;-88
2023/03/22 06:07:33;;;;;;;89.70;34.08;;;;;;;;;;2047389;29;20054;-88
2023/03/22 06:08:33;;;;;;;;;;;;;;;;;;2039911;29;20101;-87
2023/03/22 06:09:34;;;;;;;77.87;33.00;;;;;;;;;;2039648;29;20416;-88
2023/03/22 06:10:34;;;;;;;79.75;30.70;;;;;;;;;;2049256;29;20031;-88
2023/03/22 06:11:35;;;;;;;;;;;;;;;;;;2051578;29;20118;-89
2023/03/22 06:12:36;;;;;;;85.97;31.77;;;;;;;;;;2049925;29;19960;-89
2023/03/22 06:13:36;;;;;;;;;;;;;;;;;;2058936;28;20034;-88
2023/03/22 06:14:38;;;;;;;82.37;31.93;;;;;;;;;;2055118;29;19910;-89
2023/03/22 06:15:39;;;;;;;77.72;31.60;;;;;;;;;;2050066;29;20041;-89
2023/03/22 06:16:39;;;;;;;122.25;76.32;;;;;;;;;;2048636;29;20030;-89
2023/03/22 06:17:41;;;;;;;95.90;46.75;;;;;;;;;;2047918;29;20027;-89